2011 Rocket Chix I Results

Road Bike | Fat Tire | Relay

Rocket Chix I
Road Bike
Overall 350 M Swim T1 5.8 Mile Bike T2 2 Mile Run
Age Group
Pos
Overall
Pos
Name Race No Time Age Group
Pos
Overall
Pos
Time Pace Age Group
Pos
Overall
Pos
Time Age Group
Pos
Overall
Pos
Time Pace Age Group Overall
Pos
Time Age Group
Pos
Overall
Pos
Time Pace
Overall
1 1 Kylie ETIENNE 185 00:41:07 1 20 00:07:38 2:10 sec/100m 1 6 00:01:01 1 1 00:15:41 22.2 m/hr 1 59 00:01:00 1 10 00:15:46 7:53 min/m
Ages 15 - 19
1 72 Stephanie WILLIAMS 226 00:51:40 1 43 00:08:15 2:21 sec/100m 1 31 00:01:20 3 158 00:24:16 14.3 m/hr 1 7 00:00:41 1 39 00:17:06 8:33 min/m
2 117 Jessica Kingston 331 00:56:09 2 74 00:08:56 2:33 sec/100m 2 90 00:01:47 1 129 00:22:50 15.2 m/hr 3 141 00:01:27 2 133 00:21:07 10:33 min/m
3 153 Gabriella RUNNELS 108 01:00:40 3 153 00:11:04 3:09 sec/100m 3 178 00:03:04 2 153 00:23:53 14.6 m/hr 2 139 00:01:27 3 134 00:21:09 10:34 min/m
Ages 20 - 24
1 11 Chloe LAPORTE 193 00:45:15 1 6 00:06:36 1:53 sec/100m 4 28 00:01:17 4 44 00:19:52 17.5 m/hr 13 114 00:01:16 3 16 00:16:11 8:05 min/m
2 12 Talor IBERSHOFF 231 00:45:51 9 65 00:08:47 2:30 sec/100m 11 100 00:01:51 1 13 00:18:51 18.4 m/hr 19 149 00:01:30 1 4 00:14:49 7:24 min/m
3 16 Katy PARROTT 118 00:46:31 3 14 00:07:08 2:02 sec/100m 3 16 00:01:11 2 17 00:19:06 18.2 m/hr 15 124 00:01:20 9 57 00:17:43 8:51 min/m
4 19 Nicole PENNINGTON 164 00:46:41 2 8 00:06:48 1:56 sec/100m 18 173 00:02:48 3 23 00:19:16 18.1 m/hr 21 175 00:01:50 2 13 00:15:57 7:58 min/m
5 36 Courtney LANG 157 00:48:37 6 24 00:07:41 2:11 sec/100m 1 5 00:00:59 5 45 00:19:53 17.5 m/hr 9 44 00:00:56 12 90 00:19:07 9:33 min/m
6 40 Caity OPELKA 241 00:48:46                             22 196    
7 42 Elise BREAUX 272 00:49:06 7 33 00:08:03 2:18 sec/100m 8 59 00:01:30 8 80 00:21:02 16.5 m/hr 11 98 00:01:14 7 41 00:17:15 8:37 min/m
8 45 Sophie MARTIN 176 00:49:10 16 97 00:09:23 2:40 sec/100m 2 9 00:01:02 7 72 00:20:49 16.7 m/hr 4 25 00:00:48 6 37 00:17:06 8:33 min/m
9 65 Emily MCARDLE 143 00:51:11 5 22 00:07:40 2:11 sec/100m 7 55 00:01:29 11 126 00:22:42 15.3 m/hr 1 4 00:00:38 11 81 00:18:40 9:20 min/m
10 74 Elizabeth THOMAS 212 00:51:56 8 60 00:08:39 2:28 sec/100m 10 79 00:01:42 6 62 00:20:33 16.9 m/hr 7 40 00:00:54 16 114 00:20:06 10:03 min/m
11 75 Hannah DARPHIN 223 00:51:58 11 79 00:09:03 2:35 sec/100m 20 189 00:03:26 10 112 00:22:09 15.7 m/hr 10 70 00:01:03 4 17 00:16:14 8:07 min/m
12 87 Hannah HOFFMANN 169 00:53:03 4 19 00:07:36 2:10 sec/100m 14 122 00:02:02 17 167 00:24:41 14.1 m/hr 6 39 00:00:53 10 62 00:17:49 8:54 min/m
13 96 Samantha MERMIGAS 110 00:54:04 10 76 00:09:02 2:34 sec/100m 13 116 00:01:59 16 166 00:24:38 14.1 m/hr 5 32 00:00:51 8 51 00:17:33 8:46 min/m
14 98 Heather RENGIFO 137 00:54:17 18 125 00:10:03 2:52 sec/100m 6 53 00:01:28 19 169 00:24:57 13.9 m/hr 17 143 00:01:28 5 19 00:16:19 8:09 min/m
15 113 Ashley BRAUD 300 00:55:34 15 89 00:09:17 2:39 sec/100m 17 146 00:02:20 13 139 00:23:10 15.0 m/hr 14 122 00:01:20 13 95 00:19:25 9:42 min/m
16 126 Anne DOWNING 309 00:56:37 12 84 00:09:12 2:37 sec/100m 16 140 00:02:13 18 168 00:24:47 14.0 m/hr 3 13 00:00:43 15 104 00:19:40 9:50 min/m
17 130 Jennifer RICHMOND 214 00:57:00 17 103 00:09:32 2:43 sec/100m 9 76 00:01:38 12 136 00:23:05 15.1 m/hr 12 111 00:01:15 19 140 00:21:27 10:43 min/m
18 143 Kristen SCHWAUSCH 306 00:59:06 21 185 00:13:55 3:58 sec/100m 5 37 00:01:23 9 86 00:21:18 16.3 m/hr 18 145 00:01:28 18 130 00:21:00 10:30 min/m
19 147 Katie COOK 305 00:59:50 19 129 00:10:10 2:54 sec/100m 15 139 00:02:12 21 190 00:27:07 12.8 m/hr 2 12 00:00:42 14 102 00:19:37 9:48 min/m
20 154 Chelsea ARSENEAULT 175 01:00:52 20 155 00:11:06 3:10 sec/100m 21 191 00:03:45 15 155 00:24:08 14.4 m/hr 20 160 00:01:36 17 118 00:20:15 10:07 min/m
21 158 Wendi MUNN 131 01:01:16 14 87 00:09:16 2:38 sec/100m 19 177 00:03:01 14 154 00:24:07 14.4 m/hr 16 133 00:01:23 20 163 00:23:27 11:43 min/m
22 169 Courtney ROWAN 120 01:02:32 13 86 00:09:15 2:38 sec/100m 12 102 00:01:51 20 176 00:25:10 13.8 m/hr 8 42 00:00:54 21 178 00:25:19 12:39 min/m
Ages 25 - 29
1 3 Brandy COLLINS 136 00:41:34 1 1 00:05:45 1:38 sec/100m 23 151 00:02:24 2 9 00:18:36 18.7 m/hr 1 1 00:00:32 1 1 00:14:15 7:07 min/m
2 6 Kate COOK 162 00:44:50 11 29 00:07:53 2:15 sec/100m 3 19 00:01:13 6 25 00:19:19 18.0 m/hr 2 2 00:00:33 4 11 00:15:50 7:55 min/m
3 8 Gina GARCIA 292 00:45:03 12 31 00:07:59 2:17 sec/100m 8 44 00:01:25 4 18 00:19:10 18.1 m/hr 9 33 00:00:51 3 8 00:15:35 7:47 min/m
4 10 Andrea TALLEY 323 00:45:11 6 11 00:07:00 2:00 sec/100m 2 12 00:01:06 5 24 00:19:17 18.0 m/hr 13 75 00:01:05 6 26 00:16:41 8:20 min/m
5 15 Shanelle CAROLAN 134 00:46:25 13 51 00:08:25 2:24 sec/100m 1 7 00:01:01 1 6 00:18:03 19.3 m/hr 10 37 00:00:52 12 69 00:18:01 9:00 min/m
6 17 Amanda CECH 238 00:46:39 3 3 00:06:28 1:51 sec/100m 11 68 00:01:36 3 12 00:18:48 18.5 m/hr 18 118 00:01:18 15 78 00:18:26 9:13 min/m
7 23 Sarah REDPATH 225 00:47:28 7 12 00:07:03 2:01 sec/100m 12 70 00:01:37 8 52 00:20:08 17.3 m/hr 3 5 00:00:39 11 68 00:17:59 8:59 min/m
8 24 Katy CHENAULT 266 00:47:30 16 61 00:08:41 2:28 sec/100m 17 89 00:01:45 9 61 00:20:30 17.0 m/hr 22 132 00:01:23 2 5 00:15:09 7:34 min/m
9 29 Ashley KIRZINGER 145 00:48:02 2 2 00:06:13 1:46 sec/100m 25 159 00:02:29 11 73 00:20:51 16.7 m/hr 6 23 00:00:48 9 53 00:17:39 8:49 min/m
10 51 Katie PARK 112 00:49:35 17 75 00:08:57 2:33 sec/100m 4 29 00:01:19 13 81 00:21:02 16.5 m/hr 5 20 00:00:47 7 49 00:17:29 8:44 min/m
11 56 Melissa LUPO 218 00:50:13 20 91 00:09:19 2:39 sec/100m 7 43 00:01:25 21 116 00:22:17 15.6 m/hr 8 31 00:00:50 5 21 00:16:21 8:10 min/m
12 61 Gina SEQUEIRA 235 00:50:42 19 83 00:09:09 2:36 sec/100m 5 32 00:01:21 10 64 00:20:39 16.9 m/hr 17 112 00:01:16 14 76 00:18:15 9:07 min/m
13 68 Laura EIKLOR 239 00:51:19 14 52 00:08:26 2:24 sec/100m 22 141 00:02:13 18 102 00:21:55 15.9 m/hr 11 52 00:00:58 10 58 00:17:45 8:52 min/m
14 71 Miranda LEMON 187 00:51:39 4 4 00:06:34 1:52 sec/100m 14 75 00:01:38 17 94 00:21:42 16.0 m/hr 7 24 00:00:48 18 126 00:20:55 10:27 min/m
15 81 Ashley YOES 255 00:52:36 10 28 00:07:52 2:15 sec/100m 6 42 00:01:24 16 92 00:21:29 16.2 m/hr 4 17 00:00:44 19 131 00:21:04 10:32 min/m
16 86 Megan KLIEBERT 186 00:53:02 8 21 00:07:39 2:11 sec/100m 15 78 00:01:41 24 160 00:24:19 14.3 m/hr 26 173 00:01:49 8 50 00:17:32 8:46 min/m
17 91 Dylan TUGGLE 170 00:53:19 9 26 00:07:46 2:13 sec/100m 24 158 00:02:27 19 110 00:22:06 15.7 m/hr 23 134 00:01:23 17 100 00:19:35 9:47 min/m
18 95 Rebecca GREMILLION 296 00:54:03 24 142 00:10:41 3:03 sec/100m 13 74 00:01:38 12 75 00:20:56 16.6 m/hr 20 125 00:01:21 16 93 00:19:25 9:42 min/m
19 102 Desiree' LUKE 319 00:54:50 5 9 00:06:57 1:59 sec/100m 19 101 00:01:51 20 111 00:22:09 15.7 m/hr 15 99 00:01:14 22 152 00:22:37 11:18 min/m
20 122 Sarah LEBLANC 304 00:56:23 26 181 00:13:27 3:50 sec/100m 20 110 00:01:57 15 88 00:21:22 16.3 m/hr 21 126 00:01:21 13 75 00:18:14 9:07 min/m
21 123 Rebecca ROBERT 135 00:56:24 15 55 00:08:35 2:27 sec/100m 9 48 00:01:26 7 48 00:19:57 17.4 m/hr 25 148 00:01:29 25 175 00:24:54 12:27 min/m
22 132 Katy Crosby 324 00:57:16 21 93 00:09:19 2:39 sec/100m 18 92 00:01:47 14 82 00:21:02 16.5 m/hr 19 123 00:01:20 24 166 00:23:47 11:53 min/m
23 133 Courtney CUROLE 149 00:57:21 18 80 00:09:04 2:35 sec/100m 16 86 00:01:45 22 118 00:22:20 15.6 m/hr 16 101 00:01:15 23 158 00:22:55 11:27 min/m
24 139 Amy COLLINS 236 00:58:05 23 111 00:09:43 2:46 sec/100m 10 56 00:01:30 23 135 00:23:05 15.1 m/hr 14 95 00:01:12 21 151 00:22:33 11:16 min/m
25 148 Blanca DELIBERTO 327 00:59:58 22 95 00:09:21 2:40 sec/100m 21 133 00:02:10 26 178 00:25:19 13.7 m/hr 12 73 00:01:04 20 146 00:22:01 11:00 min/m
26 191 Emily COMPTON 204 01:10:28 25 165 00:11:45 3:21 sec/100m 26 188 00:03:24 25 172 00:25:04 13.9 m/hr 24 146 00:01:28 26 189 00:28:44 14:22 min/m
Ages 30 - 34
1 4 Ashley LEACH 221 00:41:43 3 15 00:07:09 2:02 sec/100m 3 20 00:01:13 1 2 00:16:21 21.3 m/hr 11 62 00:01:01 3 14 00:15:58 7:59 min/m
2 7 Shelly WORTHINGTON 293 00:44:53 4 30 00:07:53 2:15 sec/100m 2 10 00:01:02 3 20 00:19:11 18.1 m/hr 5 28 00:00:48 2 12 00:15:56 7:58 min/m
3 22 Laure LECOMPTE 253 00:47:03 2 13 00:07:07 2:02 sec/100m 1 4 00:00:58 16 84 00:21:12 16.4 m/hr 4 22 00:00:47 7 33 00:16:56 8:28 min/m
4 27 Lauren STEVENS 243 00:47:44 7 36 00:08:10 2:20 sec/100m 12 82 00:01:42 6 38 00:19:45 17.6 m/hr 8 48 00:00:57 11 40 00:17:09 8:34 min/m
5 31 Sarah BROUSSARD 167 00:48:15 10 58 00:08:38 2:28 sec/100m 6 33 00:01:21 7 41 00:19:49 17.5 m/hr 1 3 00:00:37 17 60 00:17:47 8:53 min/m
6 32 Christina OBERLIN 197 00:48:17 1 10 00:06:59 1:59 sec/100m 20 114 00:01:58 13 69 00:20:47 16.7 m/hr 7 45 00:00:56 14 52 00:17:35 8:47 min/m
7 33 Sarah TEEPELL 262 00:48:23 11 63 00:08:42 2:29 sec/100m 10 63 00:01:34 11 58 00:20:22 17.1 m/hr 3 21 00:00:47 8 34 00:16:56 8:28 min/m
8 38 Bridget GATZ 103 00:48:38 12 68 00:08:50 2:31 sec/100m 5 27 00:01:16 8 42 00:19:50 17.5 m/hr 9 49 00:00:57 16 56 00:17:43 8:51 min/m
9 44 Melinda CHAUMONT 280 00:49:09 17 88 00:09:17 2:39 sec/100m 23 137 00:02:11 5 36 00:19:41 17.7 m/hr 10 58 00:01:00 9 35 00:16:59 8:29 min/m
10 47 Julie JOHNSTON 111 00:49:18 6 35 00:08:05 2:18 sec/100m 9 61 00:01:32 23 115 00:22:16 15.6 m/hr 29 172 00:01:49 1 7 00:15:34 7:47 min/m
11 48 Leanne LAPLACE 165 00:49:21 5 34 00:08:04 2:18 sec/100m 18 112 00:01:58 15 79 00:21:02 16.5 m/hr 24 147 00:01:28 5 29 00:16:47 8:23 min/m
12 49 Jennifer MARTIN 264 00:49:23 15 77 00:09:02 2:34 sec/100m 7 38 00:01:23 9 54 00:20:14 17.2 m/hr 26 159 00:01:35 10 38 00:17:06 8:33 min/m
13 55 Maryann TUMINO 322 00:50:02 24 135 00:10:20 2:57 sec/100m 13 88 00:01:45 10 55 00:20:18 17.1 m/hr 2 8 00:00:41 6 32 00:16:55 8:27 min/m
14 59 Lisa MCCOMBS 287 00:50:28 26 146 00:10:47 3:05 sec/100m 4 26 00:01:16 4 21 00:19:12 18.1 m/hr 20 120 00:01:19 18 64 00:17:52 8:56 min/m
15 69 Rani JAMES 163 00:51:22 20 112 00:09:44 2:46 sec/100m 16 106 00:01:54 18 89 00:21:24 16.2 m/hr 6 34 00:00:51 13 48 00:17:27 8:43 min/m
16 73 Natalie GROS 138 00:51:41 27 147 00:10:48 3:05 sec/100m 14 95 00:01:48 2 16 00:19:06 18.2 m/hr 13 82 00:01:07 19 86 00:18:50 9:25 min/m
17 76 Brooke HEBERT 158 00:52:00 21 120 00:09:55 2:50 sec/100m 17 108 00:01:55 12 65 00:20:40 16.8 m/hr 30 174 00:01:49 15 54 00:17:40 8:50 min/m
18 101 Melissa WILSON 316 00:54:43 9 46 00:08:20 2:22 sec/100m 22 132 00:02:08 17 87 00:21:21 16.3 m/hr 19 115 00:01:17 26 142 00:21:35 10:47 min/m
19 103 Angela BOHLKE 113 00:54:51 25 138 00:10:24 2:58 sec/100m 28 179 00:03:07 19 97 00:21:52 15.9 m/hr 31 185 00:02:07 12 43 00:17:19 8:39 min/m
20 105 Sarah CALDARERA 150 00:54:55 18 90 00:09:18 2:39 sec/100m 24 142 00:02:14 14 70 00:20:47 16.7 m/hr 27 163 00:01:37 23 128 00:20:57 10:28 min/m
21 114 Aimee TAYLOR 220 00:55:44 28 151 00:11:02 3:09 sec/100m 29 183 00:03:13 28 147 00:23:42 14.7 m/hr 16 94 00:01:11 4 23 00:16:33 8:16 min/m
22 120 Mandy MANCHESTER 224 00:56:19 16 82 00:09:08 2:36 sec/100m 21 126 00:02:05 27 140 00:23:11 15.0 m/hr 15 92 00:01:11 22 122 00:20:42 10:21 min/m
23 128 Jennifer STAPLETON 217 00:56:49 30 166 00:11:53 3:23 sec/100m 8 58 00:01:30 25 124 00:22:40 15.4 m/hr 21 130 00:01:22 20 92 00:19:22 9:41 min/m
24 129 Kennan WORD 127 00:56:49 8 39 00:08:12 2:20 sec/100m 32 187 00:03:22 30 164 00:24:32 14.2 m/hr 17 107 00:01:15 21 97 00:19:27 9:43 min/m
25 140 Kayeli BANKSTON 126 00:58:28 19 101 00:09:30 2:43 sec/100m 30 184 00:03:15 22 114 00:22:13 15.7 m/hr 32 190 00:02:21 24 132 00:21:07 10:33 min/m
26 142 Mary ellen BROWN 268 00:58:51 14 71 00:08:55 2:33 sec/100m 27 176 00:02:59 26 134 00:23:04 15.1 m/hr 14 90 00:01:10 27 154 00:22:41 11:20 min/m
27 146 Christin BARBER 182 00:59:47 13 69 00:08:51 2:31 sec/100m 19 113 00:01:58 20 98 00:21:52 15.9 m/hr 23 137 00:01:24 31 182 00:25:39 12:49 min/m
28 150 Kristen PITRE 288 01:00:12 23 128 00:10:09 2:54 sec/100m 25 148 00:02:23 21 113 00:22:12 15.7 m/hr 28 165 00:01:39 29 165 00:23:47 11:53 min/m
29 151 Jennifer GOUDEAU 282 01:00:26 32 184 00:13:48 3:56 sec/100m 11 73 00:01:38 24 117 00:22:19 15.6 m/hr 12 69 00:01:03 25 141 00:21:35 10:47 min/m
30 163 Melissa BONAVENTURE 171 01:01:33 29 164 00:11:33 3:18 sec/100m 15 98 00:01:51 29 149 00:23:51 14.6 m/hr 22 131 00:01:23 28 157 00:22:53 11:26 min/m
31 177 Leigh GREENE 147 01:04:17 22 126 00:10:04 2:52 sec/100m 26 165 00:02:37 31 182 00:25:46 13.5 m/hr 18 109 00:01:15 30 171 00:24:33 12:16 min/m
32 197 Jennifer CHRESTMAN 228 01:28:30 31 173 00:12:21 3:31 sec/100m 31 186 00:03:19 32 195 00:33:31 10.4 m/hr 25 157 00:01:34 32 195 00:37:43 18:51 min/m
Ages 35 - 39
1 2 Kelly RHODES 312 00:41:30 1 5 00:06:35 1:53 sec/100m 1 1 00:00:45 2 11 00:18:48 18.5 m/hr 1 9 00:00:41 2 3 00:14:38 7:19 min/m
2 14 Debra PALISI 195 00:46:16 9 59 00:08:38 2:28 sec/100m 3 3 00:00:50 4 15 00:19:05 18.2 m/hr 19 127 00:01:22 3 18 00:16:19 8:09 min/m
3 20 Andree LEDDY 216 00:47:00 13 96 00:09:23 2:40 sec/100m 2 2 00:00:50 3 14 00:19:05 18.2 m/hr 3 18 00:00:45 6 31 00:16:55 8:27 min/m
4 21 Michelle TABARY 141 00:47:02 12 85 00:09:12 2:37 sec/100m 5 21 00:01:14 1 4 00:17:41 19.7 m/hr 15 84 00:01:08 9 59 00:17:45 8:52 min/m
5 28 Angela PLAKOTARIS 333 00:47:48 14 98 00:09:24 2:41 sec/100m 20 118 00:02:00 5 26 00:19:26 17.9 m/hr 28 192 00:02:37 1 2 00:14:19 7:09 min/m
6 30 Dawn TREGRE 284 00:48:07 5 41 00:08:13 2:21 sec/100m 6 23 00:01:15 12 60 00:20:29 17.0 m/hr 4 26 00:00:48 7 45 00:17:20 8:40 min/m
7 37 Paulette SAVOY 114 00:48:37 2 16 00:07:11 2:03 sec/100m 25 147 00:02:22 8 37 00:19:44 17.6 m/hr 20 129 00:01:22 10 66 00:17:57 8:58 min/m
8 53 Aimee RUSSO-MOUNGER 251 00:49:45 10 64 00:08:47 2:30 sec/100m 24 144 00:02:17 14 66 00:20:40 16.8 m/hr 23 166 00:01:40 4 20 00:16:19 8:09 min/m
9 58 Lynda MCRAE 116 00:50:18 23 158 00:11:09 3:11 sec/100m 11 54 00:01:28 7 30 00:19:35 17.8 m/hr 21 136 00:01:24 5 25 00:16:40 8:20 min/m
10 63 Jennifer PONTTI 203 00:50:49 17 115 00:09:47 2:47 sec/100m 15 85 00:01:45 10 46 00:19:55 17.5 m/hr 8 57 00:00:59 11 77 00:18:20 9:10 min/m
11 66 Jennifer HOOPER 222 00:51:13 21 131 00:10:14 2:55 sec/100m 8 36 00:01:22 9 39 00:19:48 17.6 m/hr 17 96 00:01:12 13 80 00:18:34 9:17 min/m
12 67 Beth EDMISTON 128 00:51:14 11 70 00:08:53 2:32 sec/100m 14 67 00:01:35 17 123 00:22:37 15.4 m/hr 2 15 00:00:44 8 46 00:17:23 8:41 min/m
13 85 Jennifer GORDON 139 00:52:57 7 53 00:08:27 2:24 sec/100m 13 64 00:01:34 20 131 00:22:55 15.2 m/hr 10 63 00:01:01 14 88 00:18:57 9:28 min/m
14 93 Layna COOK 189 00:53:38 24 167 00:11:58 3:25 sec/100m 12 57 00:01:30 13 63 00:20:38 16.9 m/hr 13 76 00:01:05 12 79 00:18:26 9:13 min/m
15 97 Heather GOVEIA 307 00:54:05 3 23 00:07:41 2:11 sec/100m 4 15 00:01:09 22 146 00:23:40 14.7 m/hr 6 55 00:00:59 21 121 00:20:35 10:17 min/m
16 100 Georgia THOMAS 154 00:54:34 18 118 00:09:50 2:48 sec/100m 21 120 00:02:00 6 29 00:19:33 17.8 m/hr 22 140 00:01:27 24 144 00:21:42 10:51 min/m
17 104 Emily WILSON 206 00:54:54 6 42 00:08:15 2:21 sec/100m 9 39 00:01:23 11 49 00:19:58 17.4 m/hr 25 179 00:01:55 25 160 00:23:21 11:40 min/m
18 107 Natashia CLOUATRE 258 00:55:01 16 113 00:09:44 2:46 sec/100m 16 94 00:01:48 16 120 00:22:29 15.5 m/hr 7 56 00:00:59 18 111 00:19:58 9:59 min/m
19 109 Shawna HENDRICK 289 00:55:14 22 144 00:10:42 3:03 sec/100m 7 34 00:01:21 19 128 00:22:49 15.2 m/hr 5 41 00:00:54 16 96 00:19:26 9:43 min/m
20 118 Beth VANCE 252 00:56:13 8 54 00:08:34 2:26 sec/100m 18 103 00:01:53 26 174 00:25:06 13.9 m/hr 11 66 00:01:02 17 101 00:19:36 9:48 min/m
21 124 Ivy JACK 311 00:56:27 19 122 00:09:56 2:50 sec/100m 10 45 00:01:25 18 127 00:22:42 15.3 m/hr 14 80 00:01:06 22 136 00:21:15 10:37 min/m
22 144 Laurie THOMPSON 240 00:59:10 20 127 00:10:07 2:53 sec/100m 23 131 00:02:08 24 161 00:24:25 14.3 m/hr 16 85 00:01:08 23 139 00:21:20 10:40 min/m
23 160 Tammy MCKASKLE 320 01:01:22 25 175 00:12:30 3:34 sec/100m 19 115 00:01:59 15 104 00:21:56 15.9 m/hr 12 72 00:01:04 26 167 00:23:51 11:55 min/m
24 165 Kimberly CLEMENTS 329 01:02:08 15 105 00:09:34 2:44 sec/100m 26 175 00:02:49 28 192 00:27:56 12.5 m/hr 24 168 00:01:44 19 112 00:20:02 10:01 min/m
25 171 Elizabeth LEJEUNE 160 01:03:06 26 183 00:13:43 3:55 sec/100m 28 194 00:03:57 23 152 00:23:53 14.6 m/hr 26 188 00:02:13 15 91 00:19:18 9:39 min/m
26 176 Melissa WALSH 172 01:04:12 4 37 00:08:10 2:20 sec/100m 17 97 00:01:49 27 181 00:25:34 13.6 m/hr 18 100 00:01:14 28 186 00:27:23 13:41 min/m
27 182 Bethanie GENRE 219 01:05:24 27 186 00:14:03 4:01 sec/100m 27 192 00:03:51 25 170 00:25:00 13.9 m/hr 27 189 00:02:15 20 117 00:20:12 10:06 min/m
28 185 Jennifer LOFTIN 177 01:06:08 28 189 00:14:17 4:04 sec/100m 22 125 00:02:04 21 144 00:23:37 14.7 m/hr 9 60 00:01:00 27 177 00:25:09 12:34 min/m
Ages 40 - 44
1 5 Stephanie LAMPPIN-CHEN 148 00:44:13 2 17 00:07:17 2:04 sec/100m 13 66 00:01:35 1 3 00:17:40 19.7 m/hr 19 105 00:01:15 2 22 00:16:24 8:12 min/m
2 13 Mia ERICKSON STEVENS 270 00:45:55 1 7 00:06:44 1:55 sec/100m 4 22 00:01:15 2 5 00:17:58 19.4 m/hr 11 74 00:01:05 13 87 00:18:51 9:25 min/m
3 35 Michelle GILLESPIE 256 00:48:28 12 99 00:09:28 2:42 sec/100m 10 49 00:01:26 8 43 00:19:51 17.5 m/hr 8 46 00:00:56 4 28 00:16:44 8:22 min/m
4 43 Janie PEARSON 215 00:49:06 8 57 00:08:37 2:27 sec/100m 2 14 00:01:08 7 40 00:19:49 17.6 m/hr 3 14 00:00:43 12 84 00:18:47 9:23 min/m
5 46 Katy BROWN 325 00:49:16 6 49 00:08:25 2:24 sec/100m 5 24 00:01:16 5 31 00:19:35 17.8 m/hr 17 97 00:01:13 11 83 00:18:45 9:22 min/m
6 50 Anne-scott POURCIAU 200 00:49:35 3 18 00:07:25 2:07 sec/100m 6 30 00:01:20 11 56 00:20:19 17.1 m/hr 4 16 00:00:44 15 107 00:19:46 9:53 min/m
7 52 Nanci CHARPENTIER 276 00:49:39 9 66 00:08:48 2:30 sec/100m 14 72 00:01:38 12 71 00:20:48 16.7 m/hr 2 10 00:00:42 7 55 00:17:41 8:50 min/m
8 57 Beth OQUIN 115 00:50:17 4 44 00:08:18 2:22 sec/100m 22 149 00:02:24 15 78 00:20:59 16.6 m/hr 20 106 00:01:15 6 44 00:17:19 8:39 min/m
9 60 Stacey FRENS 101 00:50:41 18 140 00:10:33 3:01 sec/100m 18 111 00:01:57 3 7 00:18:11 19.1 m/hr 18 104 00:01:15 10 82 00:18:43 9:21 min/m
10 62 Cynthia BRANCH 232 00:50:45 20 157 00:11:07 3:10 sec/100m 9 47 00:01:26 10 53 00:20:10 17.2 m/hr 21 113 00:01:16 3 27 00:16:43 8:21 min/m
11 64 Tina MARQUARDT 198 00:51:06 13 108 00:09:42 2:46 sec/100m 25 157 00:02:27 9 50 00:20:05 17.3 m/hr 23 152 00:01:31 5 42 00:17:19 8:39 min/m
12 70 Amanda NEALY 281 00:51:37 10 73 00:08:56 2:33 sec/100m 3 17 00:01:12 22 122 00:22:35 15.4 m/hr 6 27 00:00:48 8 70 00:18:03 9:01 min/m
13 77 Kellie RUIZ 291 00:52:13 5 47 00:08:20 2:23 sec/100m 1 13 00:01:07 4 28 00:19:30 17.8 m/hr 22 128 00:01:22 22 145 00:21:51 10:55 min/m
14 82 Candice LINVILLE 328 00:52:46 16 117 00:09:49 2:48 sec/100m 23 153 00:02:24 13 74 00:20:52 16.7 m/hr 24 155 00:01:31 9 73 00:18:07 9:03 min/m
15 89 Marykate HOTALING 303 00:53:07 15 114 00:09:46 2:47 sec/100m 28 167 00:02:40 23 143 00:23:34 14.8 m/hr 12 77 00:01:05 1 15 00:15:59 7:59 min/m
16 106 Pamela PASSARELLI 263 00:54:58 14 110 00:09:42 2:46 sec/100m 26 163 00:02:34 17 91 00:21:29 16.2 m/hr 14 79 00:01:06 17 113 00:20:05 10:02 min/m
17 108 Gina GOLDA 233 00:55:10 7 56 00:08:36 2:27 sec/100m 8 41 00:01:24 6 32 00:19:35 17.8 m/hr 27 187 00:02:11 23 161 00:23:22 11:41 min/m
18 127 Jennifer ROE 121 00:56:40 11 78 00:09:03 2:35 sec/100m 19 117 00:02:00 26 165 00:24:36 14.1 m/hr 10 68 00:01:03 16 109 00:19:56 9:58 min/m
19 131 Suzanne BOWERS 249 00:57:02 24 171 00:12:17 3:30 sec/100m 11 52 00:01:27 16 85 00:21:16 16.4 m/hr 13 78 00:01:06 20 125 00:20:54 10:27 min/m
20 134 Rebecca O'REILLY 123 00:57:24 25 174 00:12:22 3:32 sec/100m 15 83 00:01:42 19 105 00:22:02 15.8 m/hr 25 176 00:01:50 14 94 00:19:25 9:42 min/m
21 137 Michelle KINGSTON 332 00:57:51 19 149 00:10:55 3:07 sec/100m 17 96 00:01:49 21 109 00:22:06 15.7 m/hr 26 182 00:02:02 21 129 00:20:57 10:28 min/m
22 138 Kelli SHANNON 248 00:58:04 17 134 00:10:18 2:56 sec/100m 21 138 00:02:11 25 157 00:24:16 14.3 m/hr 16 87 00:01:09 18 116 00:20:08 10:04 min/m
23 141 Katherine FOSTER 285 00:58:51 21 161 00:11:25 3:15 sec/100m 12 60 00:01:30 14 76 00:20:57 16.6 m/hr 1 6 00:00:39 24 169 00:24:17 12:08 min/m
24 159 Rebecca MORRISON 317 01:01:17 22 168 00:11:59 3:25 sec/100m 16 91 00:01:47 18 93 00:21:38 16.1 m/hr 7 35 00:00:51 26 176 00:24:59 12:29 min/m
25 167 Rebecca RAMOS 119 01:02:24 26 176 00:12:37 3:36 sec/100m 7 35 00:01:21 20 106 00:22:03 15.8 m/hr 5 19 00:00:45 27 181 00:25:36 12:48 min/m
26 175 Linda NAQUIN 142 01:03:51 23 169 00:12:03 3:26 sec/100m 20 134 00:02:10 24 150 00:23:51 14.6 m/hr 15 86 00:01:09 25 172 00:24:37 12:18 min/m
27 186 Tracie COMEAUX 100 01:07:25 27 192 00:16:53 4:49 sec/100m 27 166 00:02:38 28 188 00:26:38 13.1 m/hr 9 53 00:00:58 19 119 00:20:16 10:08 min/m
28 195 Laura SAVOY 318 01:24:33 28 194 00:21:03 6:00 sec/100m 24 156 00:02:25 27 187 00:26:37 13.1 m/hr 28 191 00:02:28 28 192 00:31:58 15:59 min/m
Ages 45 - 49
1 9 Barbara ELLIS 315 00:45:08 5 45 00:08:19 2:22 sec/100m 2 40 00:01:24 1 8 00:18:34 18.7 m/hr 12 103 00:01:15 2 9 00:15:35 7:47 min/m
2 25 Eve KAZIK 247 00:47:41 6 50 00:08:25 2:24 sec/100m 5 84 00:01:44 8 68 00:20:45 16.8 m/hr 10 93 00:01:11 1 6 00:15:34 7:47 min/m
3 26 Melanie DETLOFF 330 00:47:44 2 32 00:08:01 2:17 sec/100m 1 11 00:01:03 2 10 00:18:46 18.5 m/hr 6 67 00:01:03 7 85 00:18:49 9:24 min/m
4 54 Devin LEMOINE 117 00:49:51 10 100 00:09:30 2:42 sec/100m 4 81 00:01:42 4 34 00:19:37 17.7 m/hr 18 158 00:01:35 3 47 00:17:25 8:42 min/m
5 78 Jill FENN 301 00:52:16 8 72 00:08:56 2:33 sec/100m 6 87 00:01:45 5 47 00:19:57 17.4 m/hr 21 181 00:02:01 10 99 00:19:34 9:47 min/m
6 80 Lei BROWN 132 00:52:20 9 92 00:09:19 2:39 sec/100m 3 62 00:01:34 10 101 00:21:55 15.9 m/hr 19 164 00:01:38 5 65 00:17:53 8:56 min/m
7 88 Sandra DUGAS 265 00:53:05 7 67 00:08:50 2:31 sec/100m 8 121 00:02:01 9 90 00:21:28 16.2 m/hr 11 102 00:01:15 9 98 00:19:29 9:44 min/m
8 90 Carol LATOUR 208 00:53:12 18 154 00:11:04 3:09 sec/100m 18 162 00:02:34 7 67 00:20:44 16.8 m/hr 4 54 00:00:58 4 63 00:17:50 8:55 min/m
9 110 Ann SMITH 277 00:55:18 12 123 00:09:57 2:50 sec/100m 7 119 00:02:00 13 121 00:22:32 15.4 m/hr 7 83 00:01:08 11 103 00:19:38 9:49 min/m
10 115 Vickie RILEY 314 00:55:54 15 137 00:10:22 2:57 sec/100m 13 129 00:02:06 6 57 00:20:20 17.1 m/hr 15 138 00:01:26 16 143 00:21:37 10:48 min/m
11 116 Michelle SIMON 153 00:55:56 3 38 00:08:10 2:20 sec/100m 19 164 00:02:36 16 138 00:23:07 15.1 m/hr 8 88 00:01:09 13 124 00:20:52 10:26 min/m
12 119 Christine ROBERTS 246 00:56:17 14 132 00:10:17 2:56 sec/100m 15 143 00:02:17 3 22 00:19:15 18.1 m/hr 9 91 00:01:10 21 159 00:23:16 11:38 min/m
13 125 Amy STOKES 183 00:56:31 1 25 00:07:42 2:12 sec/100m 14 136 00:02:11 15 133 00:23:01 15.1 m/hr 14 135 00:01:23 17 147 00:22:12 11:06 min/m
14 135 Juli HARTLEY 151 00:57:37 17 152 00:11:04 3:09 sec/100m 11 127 00:02:05 19 163 00:24:32 14.2 m/hr 1 30 00:00:49 8 89 00:19:05 9:32 min/m
15 136 Phyllis KYLE 105 00:57:46 13 124 00:10:02 2:52 sec/100m 22 181 00:03:10 21 173 00:25:06 13.9 m/hr 13 117 00:01:18 6 74 00:18:08 9:04 min/m
16 155 Sandra VICKNAIR 294 01:00:58 20 162 00:11:29 3:16 sec/100m 21 172 00:02:46 11 108 00:22:04 15.8 m/hr 20 171 00:01:47 20 156 00:22:49 11:24 min/m
17 156 Liz HOFFMANN 168 01:01:07 19 156 00:11:06 3:10 sec/100m 16 154 00:02:25 23 183 00:25:49 13.5 m/hr 5 61 00:01:00 12 123 00:20:45 10:22 min/m
18 157 Rebecca DURMAN 104 01:01:12 23 178 00:12:48 3:39 sec/100m 10 124 00:02:04 12 119 00:22:22 15.6 m/hr 23 193 00:02:47 15 135 00:21:09 10:34 min/m
19 161 Patty RIDDLEBARGER 334 01:01:28 21 163 00:11:29 3:16 sec/100m 17 155 00:02:25 22 175 00:25:06 13.9 m/hr 16 150 00:01:31 14 127 00:20:55 10:27 min/m
20 164 Tanie BUSH 173 01:01:52 4 40 00:08:12 2:20 sec/100m 23 182 00:03:11 14 125 00:22:41 15.3 m/hr 24 194 00:03:00 22 174 00:24:45 12:22 min/m
21 170 Teri MCCOY 209 01:03:05 22 172 00:12:20 3:31 sec/100m 12 128 00:02:06 20 171 00:25:01 13.9 m/hr 3 50 00:00:57 19 153 00:22:39 11:19 min/m
22 188 Linda DANTIN 275 01:08:55 24 191 00:16:26 4:41 sec/100m 9 123 00:02:03 24 189 00:27:03 12.9 m/hr 2 43 00:00:55 18 150 00:22:25 11:12 min/m
23 189 Denise MARCEAUX 155 01:09:50 16 148 00:10:48 3:05 sec/100m 20 171 00:02:46 17 145 00:23:39 14.7 m/hr 22 183 00:02:02 24 191 00:30:33 15:16 min/m
24 190 Elizabeth WOLFF 194 01:09:59 11 119 00:09:52 2:49 sec/100m 24 195 00:04:27 18 156 00:24:12 14.4 m/hr 17 153 00:01:31 23 190 00:29:55 14:57 min/m
Ages 50 - 54
1 18 Leslie SCHROTH 244 00:46:40 1 27 00:07:52 2:14 sec/100m 2 46 00:01:26 2 27 00:19:28 17.9 m/hr 3 38 00:00:52 1 36 00:17:00 8:30 min/m
2 34 Carolyn BELL 106 00:48:27 2 48 00:08:25 2:24 sec/100m 3 50 00:01:26 3 33 00:19:37 17.7 m/hr 5 51 00:00:58 3 67 00:17:59 8:59 min/m
3 79 Merle FRANCIS 122 00:52:19 6 121 00:09:55 2:50 sec/100m 4 51 00:01:27 1 19 00:19:11 18.1 m/hr 8 116 00:01:17 6 120 00:20:27 10:13 min/m
4 84 Fran GIBSON 295 00:52:55 7 130 00:10:12 2:54 sec/100m 6 69 00:01:36 5 99 00:21:52 15.9 m/hr 7 89 00:01:09 4 71 00:18:03 9:01 min/m
5 92 Liz SEITER 308 00:53:37 5 116 00:09:48 2:48 sec/100m 1 8 00:01:01 4 51 00:20:06 17.3 m/hr 9 121 00:01:19 8 138 00:21:20 10:40 min/m
6 112 Terri SMITH 181 00:55:32 11 150 00:11:02 3:09 sec/100m 5 65 00:01:34 6 107 00:22:04 15.8 m/hr 4 47 00:00:56 5 108 00:19:53 9:56 min/m
7 121 Jeanne RICHARDSON 250 00:56:20 3 106 00:09:34 2:44 sec/100m 14 190 00:03:36 9 151 00:23:51 14.6 m/hr 10 144 00:01:28 2 61 00:17:49 8:54 min/m
8 168 Dawn CANTRELL 261 01:02:24 10 145 00:10:46 3:04 sec/100m 11 170 00:02:42 7 132 00:22:57 15.2 m/hr 11 154 00:01:31 10 170 00:24:25 12:12 min/m
9 172 Cynthia BLANCHARD 335 01:03:06 9 141 00:10:33 3:01 sec/100m 8 104 00:01:53 8 137 00:23:07 15.1 m/hr 14 186 00:02:10 11 179 00:25:21 12:40 min/m
10 173 Rachel FOURNET 310 01:03:36 13 180 00:13:15 3:47 sec/100m 10 168 00:02:42 10 159 00:24:18 14.3 m/hr 6 65 00:01:02 9 149 00:22:17 11:08 min/m
11 178 Muguet BOLOTTE 279 01:04:38 8 136 00:10:21 2:57 sec/100m 9 109 00:01:56 11 180 00:25:33 13.6 m/hr 1 11 00:00:42 13 185 00:26:04 13:02 min/m
12 179 Sarah LYON 152 01:04:42 12 170 00:12:07 3:27 sec/100m 13 180 00:03:08 13 185 00:26:05 13.3 m/hr 13 184 00:02:04 7 137 00:21:16 10:38 min/m
13 183 Mary ELY 107 01:05:30 4 109 00:09:42 2:46 sec/100m 7 77 00:01:39 14 191 00:27:22 12.7 m/hr 2 36 00:00:52 12 184 00:25:52 12:56 min/m
14 192 Ellen BUSH 201 01:12:24 14 182 00:13:30 3:51 sec/100m 12 174 00:02:48 12 184 00:25:51 13.5 m/hr 12 177 00:01:53 14 187 00:28:20 14:10 min/m
Ages 55 - 59
1 39 Kathy KLIEBERT 205 00:48:42 3 104 00:09:34 2:44 sec/100m 2 25 00:01:16 1 35 00:19:41 17.7 m/hr 4 110 00:01:15 2 30 00:16:54 8:27 min/m
2 41 Melody CHILDS 109 00:48:48 2 102 00:09:31 2:43 sec/100m 1 18 00:01:13 2 59 00:20:23 17.1 m/hr 1 64 00:01:02 1 24 00:16:37 8:18 min/m
3 99 Darlene BALDWIN 140 00:54:28 6 159 00:11:16 3:13 sec/100m 6 107 00:01:55 3 95 00:21:44 16.0 m/hr 5 142 00:01:27 3 72 00:18:04 9:02 min/m
4 145 Louann BOMBET 269 00:59:10 1 62 00:08:42 2:29 sec/100m 5 105 00:01:53 5 130 00:22:52 15.2 m/hr 6 151 00:01:31 6 168 00:24:10 12:05 min/m
5 149 Marianne KIRKPATRICK 286 01:00:12 5 139 00:10:25 2:58 sec/100m 7 130 00:02:08 4 96 00:21:50 15.9 m/hr 2 81 00:01:07 7 173 00:24:40 12:20 min/m
6 152 Michele CALANDRO 102 01:00:29 4 133 00:10:18 2:56 sec/100m 3 80 00:01:42 7 162 00:24:25 14.2 m/hr 3 108 00:01:15 5 155 00:22:46 11:23 min/m
7 162 Cindy THOMPSON 156 01:01:32                             11 197    
8 174 Elizabeth DIAZ 144 01:03:37 7 160 00:11:22 3:15 sec/100m 4 99 00:01:51 6 141 00:23:17 14.9 m/hr 8 161 00:01:36 8 180 00:25:28 12:44 min/m
9 187 Joyce BUIE 274 01:07:29 8 187 00:14:04 4:01 sec/100m 9 160 00:02:31 10 194 00:29:20 11.9 m/hr 9 170 00:01:47 4 106 00:19:44 9:52 min/m
10 194 Freida PARKER 299 01:18:19 9 193 00:17:27 4:59 sec/100m 8 145 00:02:18 9 193 00:28:39 12.1 m/hr 7 156 00:01:33 9 188 00:28:20 14:10 min/m
11 196 Cynthia MELTON 278 01:27:31 10 195 00:21:19 6:05 sec/100m 10 193 00:03:55 8 186 00:26:22 13.2 m/hr 10 195 00:03:53 10 193 00:31:59 15:59 min/m
Ages 60 - 64
1 83 Ellen HAHN 267 00:52:53 2 94 00:09:20 2:40 sec/100m 1 71 00:01:37 1 77 00:20:58 16.6 m/hr 1 29 00:00:49 2 115 00:20:07 10:03 min/m
2 94 Joyce RYDER 146 00:53:53 1 81 00:09:06 2:36 sec/100m 2 93 00:01:47 2 83 00:21:07 16.5 m/hr 3 178 00:01:54 1 110 00:19:57 9:58 min/m
3 166 Maureen SIMPSON 257 01:02:18 3 143 00:10:41 3:03 sec/100m 3 169 00:02:42 4 148 00:23:50 14.6 m/hr 2 162 00:01:36 4 162 00:23:27 11:43 min/m
4 181 Connie BOUDREAUX 188 01:05:14 4 190 00:15:46 4:30 sec/100m 4 185 00:03:17 3 100 00:21:54 15.9 m/hr 4 180 00:02:01 3 148 00:22:14 11:07 min/m
Ages 65 - 69
1 111 Gini FELLOWS 199 00:55:21 1 107 00:09:35 2:44 sec/100m 2 152 00:02:24 1 103 00:21:56 15.9 m/hr 3 167 00:01:44 1 105 00:19:40 9:50 min/m
2 180 Sharon HILL 202 01:05:09 2 177 00:12:38 3:36 sec/100m 3 161 00:02:32 3 177 00:25:11 13.8 m/hr 1 71 00:01:03 2 164 00:23:42 11:51 min/m
3 184 Selena KINDIG 180 01:05:54 3 179 00:13:08 3:45 sec/100m 1 150 00:02:24 2 142 00:23:20 14.9 m/hr 2 119 00:01:19 3 183 00:25:41 12:50 min/m
Ages 70 - 74
1 193 Victorine COUTURE 326 01:17:44 1 188 00:14:15 4:04 sec/100m 1 135 00:02:11 1 179 00:25:22 13.7 m/hr 1 169 00:01:46 1 194 00:34:08 17:04 min/m
Results by RRPTiming.com

 

Road Bike | Fat Tire | Relay

Rocket Chix I
Fat Tire
Overall 350 M Swim T1 5.8 Mile Bike T2 2 Mile Run
Age Group
Pos
Overall
Pos
Name Race No Time Age Group
Pos
Overall
Pos
Time Pace Age Group
Pos
Overall
Pos
Time Age Group
Pos
Overall
Pos
Time Pace Age Group Overall
Pos
Time Age Group
Pos
Overall
Pos
Time Pace
Overall
1 1 Anne Super 534 00:45:07.70 1 6 00:07:22.93 2:06 sec/100m 1 20 00:01:35.77 1 3 00:20:08.99 17.3 m/hr 1 4 00:00:41.23 1 3 00:15:18.77 7:39 min/m
Ages 15 - 19
1 42 Casey VOSS 487 00:58:39.10 1 37 00:09:20.33 2:40 sec/100m 1 93 00:03:21.77 1 58 00:25:22.00 13.7 m/hr 1 26 00:00:57.22 1 47 00:19:37.77 9:48 min/m
Ages 20 - 24
1 5 Renee HRAPMANN 479 00:49:02.30 5 25 00:08:32.53 2:26 sec/100m 2 26 00:01:44.77 2 11 00:21:29.00 16.2 m/hr 6 39 00:01:03.22 2 9 00:16:12.77 8:06 min/m
2 8 Rachel SELICE 511 00:49:53.00 9 44 00:09:43.23 2:46 sec/100m 5 50 00:02:12.77 1 7 00:21:02.01 16.5 m/hr 2 5 00:00:42.22 3 10 00:16:12.77 8:06 min/m
3 21 Kelly MCCOY 453 00:51:46.30 6 27 00:08:37.53 2:27 sec/100m 1 5 00:01:12.77 3 35 00:23:28.99 14.8 m/hr 3 11 00:00:45.22 5 25 00:17:41.77 8:50 min/m
4 23 Suzanne RASPA 407 00:52:02.70 8 39 00:09:25.93 2:41 sec/100m 7 68 00:02:35.77 4 50 00:25:00.00 13.9 m/hr 1 2 00:00:38.22 1 1 00:14:22.77 7:11 min/m
5 28 Avery BARRILLEAUX 480 00:54:33.30 1 10 00:07:31.53 2:09 sec/100m 4 44 00:02:06.77 7 71 00:27:11.00 12.8 m/hr 7 42 00:01:05.22 4 13 00:16:38.77 8:19 min/m
6 55 Rebecca HILL 489 01:01:25.10 7 35 00:09:15.33 2:38 sec/100m 10 99 00:03:40.77 5 68 00:26:48.00 13.0 m/hr 11 91 00:01:50.22 8 49 00:19:50.77 9:55 min/m
7 59 Amy UPTON 512 01:01:43.30 11 56 00:10:25.53 2:58 sec/100m 9 89 00:03:16.77 8 80 00:28:23.00 12.3 m/hr 5 23 00:00:55.22 6 34 00:18:42.77 9:21 min/m
8 61 Geralyn SCHEXNAYDER 491 01:01:49.10 4 23 00:08:17.33 2:22 sec/100m 11 106 00:04:51.77 6 69 00:26:52.00 13.0 m/hr 10 89 00:01:49.22 9 51 00:19:58.77 9:59 min/m
9 64 Alana BLACKWELL 402 01:02:37.30 10 53 00:10:15.53 2:55 sec/100m 6 52 00:02:15.77 9 93 00:30:04.00 11.6 m/hr 4 17 00:00:50.22 7 42 00:19:11.77 9:35 min/m
10 79 Lindsey TASSIN 433 01:07:05.50 2 16 00:08:00.73 2:17 sec/100m 3 43 00:02:05.77 10 103 00:34:20.00 10.1 m/hr 8 66 00:01:30.22 10 63 00:21:08.77 10:34 min/m
11 87 Shannon STAHL 420 01:11:56.00 3 20 00:08:12.23 2:20 sec/100m 8 87 00:03:12.77 11 104 00:34:30.99 10.1 m/hr 9 71 00:01:32.23 11 81 00:24:27.77 12:13 min/m
Ages 25 - 29
1 9 Amy GATTLE 425 00:49:54.10 1 5 00:07:19.33 2:05 sec/100m 1 4 00:01:12.77 2 17 00:22:10.00 15.7 m/hr 4 27 00:00:58.22 4 27 00:18:13.77 9:06 min/m
2 12 Rebeca BORDELON 477 00:50:38.20 12 51 00:10:08.43 2:53 sec/100m 8 40 00:01:57.77 1 6 00:20:58.00 16.6 m/hr 7 40 00:01:03.22 1 12 00:16:30.77 8:15 min/m
3 18 Chazzie FALLO 529 00:51:36.90 5 28 00:08:47.13 2:30 sec/100m 6 31 00:01:49.77 3 23 00:22:19.00 15.6 m/hr 9 48 00:01:10.22 3 22 00:17:30.77 8:45 min/m
4 20 Jessica MELTZ 415 00:51:43.10 4 18 00:08:08.33 2:19 sec/100m 13 72 00:02:39.78 4 29 00:22:42.99 15.3 m/hr 1 14 00:00:46.22 2 21 00:17:25.77 8:42 min/m
5 32 Rachel FRANZELLA 445 00:55:18.00 8 32 00:08:58.23 2:33 sec/100m 7 38 00:01:53.77 6 31 00:22:59.99 15.1 m/hr 10 62 00:01:23.23 8 52 00:20:02.77 10:01 min/m
6 36 Kalee COOKSEY 409 00:56:06.11 15 75 00:11:42.33 3:20 sec/100m 2 7 00:01:21.78 5 30 00:22:50.99 15.2 m/hr 8 46 00:01:08.22 5 37 00:19:02.78 9:31 min/m
7 37 Stephanie GIVENS 454 00:56:22.30 9 41 00:09:33.53 2:43 sec/100m 5 28 00:01:45.77 9 48 00:24:42.00 14.1 m/hr 2 15 00:00:47.22 7 46 00:19:33.77 9:46 min/m
8 44 Melissa SELLERS 438 00:58:52.20 7 31 00:08:50.43 2:31 sec/100m 9 46 00:02:07.78 8 47 00:24:36.99 14.1 m/hr 3 19 00:00:52.22 12 73 00:22:24.77 11:12 min/m
9 45 Piper OUBRE 498 00:58:54.30 11 49 00:09:59.53 2:51 sec/100m 4 19 00:01:35.77 12 54 00:25:14.00 13.8 m/hr 6 30 00:01:00.22 9 62 00:21:04.77 10:32 min/m
10 46 Sarah MEDEARIS 513 00:58:58.30 3 12 00:07:47.53 2:13 sec/100m 15 77 00:02:47.77 11 53 00:25:03.00 13.9 m/hr 14 80 00:01:37.22 10 69 00:21:42.77 10:51 min/m
11 53 Carey MESSINA 499 01:01:06.91 2 7 00:07:23.13 2:06 sec/100m 10 53 00:02:16.77 7 45 00:24:26.00 14.2 m/hr 16 92 00:01:52.22 15 83 00:25:08.78 12:34 min/m
12 54 Haley Kerr 533 01:01:08.70 6 29 00:08:47.93 2:30 sec/100m 18 96 00:03:34.77 10 51 00:25:01.00 13.9 m/hr 5 28 00:00:58.22 13 75 00:22:46.77 11:23 min/m
13 65 Tabitha MANGANO 490 01:02:37.30 10 42 00:09:38.53 2:45 sec/100m 3 10 00:01:26.77 13 77 00:28:02.00 12.4 m/hr 12 78 00:01:36.22 11 70 00:21:53.77 10:56 min/m
14 83 Christina Danos 532 01:09:37.10 16 82 00:12:19.33 3:31 sec/100m 14 75 00:02:45.77 19 102 00:33:36.00 10.4 m/hr 15 90 00:01:49.22 6 39 00:19:06.77 9:33 min/m
15 90 Jaime YOUNG 451 01:12:42.50 13 55 00:10:18.73 2:56 sec/100m 12 65 00:02:32.77 18 101 00:33:16.99 10.5 m/hr 18 99 00:02:19.22 14 80 00:24:14.77 12:07 min/m
16 94 Amanda CASON 405 01:14:59.30 14 60 00:10:33.53 3:01 sec/100m 19 98 00:03:36.77 15 92 00:29:57.00 11.6 m/hr 17 96 00:02:00.22 17 95 00:28:51.77 14:25 min/m
17 96 Ginger REES 463 01:16:32.10 18 96 00:14:17.33 4:04 sec/100m 16 79 00:02:56.77 14 90 00:29:38.99 11.7 m/hr 11 70 00:01:32.23 16 89 00:28:06.77 14:03 min/m
18 100 Courtney BRITTON 474 01:20:24.01 17 85 00:12:42.23 3:37 sec/100m 17 84 00:03:09.77 16 98 00:32:12.99 10.8 m/hr 19 100 00:02:20.23 19 98 00:29:58.78 14:59 min/m
19 106 Alpha GEBRE 506 01:28:29.40 19 105 00:22:41.50 6:29 sec/100m 11 62 00:02:29.90 17 99 00:32:15.99 10.8 m/hr 13 79 00:01:36.23 18 96 00:29:25.77 14:42 min/m
Ages 30 - 34
1 2 Michelle MCMAHON 423 00:46:43.70 6 21 00:08:12.93 2:20 sec/100m 10 41 00:01:58.77 2 2 00:20:08.00 17.3 m/hr 2 8 00:00:44.22 1 4 00:15:39.77 7:49 min/m
2 4 Jill LARZELERE 441 00:48:58.70 4 17 00:08:07.93 2:19 sec/100m 1 3 00:01:08.78 5 12 00:21:39.99 16.1 m/hr 3 9 00:00:45.22 7 18 00:17:16.77 8:38 min/m
3 6 Elizabeth STONE 434 00:49:20.70 3 13 00:07:47.93 2:13 sec/100m 18 92 00:03:20.77 4 8 00:21:03.00 16.5 m/hr 13 50 00:01:11.22 2 7 00:15:57.77 7:58 min/m
4 13 Kate MACARTHUR 516 00:50:42.90 5 19 00:08:09.13 2:19 sec/100m 8 37 00:01:52.77 9 21 00:22:15.00 15.6 m/hr 8 22 00:00:55.22 8 23 00:17:30.77 8:45 min/m
5 14 Lacey STOCKTON 478 00:50:46.40 12 57 00:10:26.63 2:59 sec/100m 3 12 00:01:29.77 6 14 00:21:52.00 15.9 m/hr 5 16 00:00:47.22 3 8 00:16:10.77 8:05 min/m
6 17 Cindy SCIONEAUX 447 00:51:34.80 14 66 00:10:53.03 3:06 sec/100m 2 8 00:01:23.77 8 19 00:22:11.00 15.7 m/hr 1 6 00:00:42.22 4 11 00:16:24.77 8:12 min/m
7 25 Kay NELSON 413 00:54:09.90 2 11 00:07:46.13 2:13 sec/100m 7 34 00:01:50.77 13 40 00:24:01.00 14.5 m/hr 7 20 00:00:53.22 15 48 00:19:38.77 9:49 min/m
8 26 Denyse FEGAN 439 00:54:23.21 8 38 00:09:24.43 2:41 sec/100m 19 94 00:03:27.77 10 24 00:22:28.99 15.5 m/hr 6 18 00:00:51.23 10 26 00:18:10.78 9:05 min/m
9 27 Jennifer Louque 401 00:54:32.30 9 45 00:09:43.53 2:46 sec/100m 13 49 00:02:10.78 14 43 00:24:23.99 14.3 m/hr 15 56 00:01:16.22 5 16 00:16:57.77 8:28 min/m
10 31 Nadia JOHNSON 432 00:55:09.91 11 54 00:10:17.13 2:56 sec/100m 11 45 00:02:06.77 7 15 00:22:01.99 15.8 m/hr 18 74 00:01:34.23 14 41 00:19:09.78 9:34 min/m
11 34 Jill GUITRAU 419 00:55:44.60 1 1 00:06:42.83 1:55 sec/100m 14 51 00:02:14.77 16 85 00:28:50.00 12.1 m/hr 4 13 00:00:46.22 6 17 00:17:10.77 8:35 min/m
12 38 Dawn PITTMAN 400 00:57:14.70 17 74 00:11:25.93 3:15 sec/100m 6 30 00:01:48.77 15 57 00:25:19.00 13.7 m/hr 10 29 00:01:00.22 9 24 00:17:40.77 8:50 min/m
13 43 Noelle ALLISON 514 00:58:39.70 16 69 00:11:11.93 3:11 sec/100m 5 25 00:01:43.77 3 4 00:20:24.00 17.1 m/hr 20 104 00:02:36.22 17 74 00:22:43.77 11:21 min/m
14 48 Ivy BARNES 497 00:59:38.80 15 68 00:10:55.03 3:07 sec/100m 20 95 00:03:30.77 11 28 00:22:36.01 15.4 m/hr 17 72 00:01:34.22 16 60 00:21:02.77 10:31 min/m
15 51 Lindsay ROBERTS 428 01:00:34.80 7 36 00:09:17.03 2:39 sec/100m 9 39 00:01:54.77 17 87 00:29:10.00 11.9 m/hr 19 86 00:01:44.22 11 31 00:18:28.77 9:14 min/m
16 62 Aneatra BOYKIN 526 01:02:13.70 19 101 00:16:42.80 4:46 sec/100m 4 21 00:01:35.90 12 39 00:23:53.00 14.6 m/hr 9 24 00:00:55.22 13 38 00:19:06.77 9:33 min/m
17 82 Erin Wesley 452 01:08:59.70 21 106 00:41:14.80 11:47 sec/100m 16 63 00:02:30.90 1 1 00:00:00.00 m/hr 11 33 00:01:00.22 18 79 00:24:13.77 12:06 min/m
18 84 Adonica PELICHET DUGGAN 466 01:09:41.10 10 50 00:10:07.33 2:53 sec/100m 12 48 00:02:10.77 18 91 00:29:43.99 11.7 m/hr 16 68 00:01:31.22 19 85 00:26:07.77 13:03 min/m
19 91 Neila STONE 527 01:13:08.91 13 63 00:10:39.13 3:02 sec/100m 15 54 00:02:18.77 20 100 00:32:53.99 10.6 m/hr 12 35 00:01:01.23 20 87 00:26:15.78 13:07 min/m
20 99 Carey CLEMENT 426 01:19:59.90 20 103 00:17:38.13 5:02 sec/100m 17 67 00:02:35.77 21 106 00:39:53.00 8.7 m/hr 14 51 00:01:12.22 12 33 00:18:40.77 9:20 min/m
21 105 Elizabeth DEQUEANT 488 01:28:27.31 18 83 00:12:24.53 3:32 sec/100m 21 103 00:04:28.78 19 97 00:32:07.99 10.8 m/hr 21 105 00:02:39.22 21 106 00:36:46.78 18:23 min/m
Ages 35 - 39
1 3 Joanna LEMOINE 462 00:48:07.90 1 3 00:07:07.13 2:02 sec/100m 1 6 00:01:19.77 2 20 00:22:13.00 15.7 m/hr 1 1 00:00:38.22 2 15 00:16:49.77 8:24 min/m
2 15 Martha GUARISCO 472 00:50:47.80 3 26 00:08:35.03 2:27 sec/100m 4 24 00:01:42.77 1 9 00:21:10.99 16.4 m/hr 2 25 00:00:56.23 3 29 00:18:22.77 9:11 min/m
3 30 Shannon NEWMAN 412 00:54:48.90 7 61 00:10:34.13 3:01 sec/100m 3 23 00:01:41.77 3 27 00:22:35.99 15.4 m/hr 10 67 00:01:30.23 4 30 00:18:26.77 9:13 min/m
4 41 Kristen l. LANDRY 515 00:58:20.80 13 95 00:14:08.03 4:02 sec/100m 14 105 00:04:43.77 4 34 00:23:28.00 14.8 m/hr 8 60 00:01:21.22 1 2 00:14:39.77 7:19 min/m
5 47 Darla BURNETT 471 00:58:59.10 9 67 00:10:53.33 3:06 sec/100m 7 60 00:02:29.77 5 41 00:24:02.00 14.5 m/hr 13 81 00:01:39.22 6 50 00:19:54.77 9:57 min/m
6 57 Michelle LEE 449 01:01:31.30 6 59 00:10:32.53 3:00 sec/100m 5 29 00:01:47.77 14 89 00:29:27.99 11.8 m/hr 4 45 00:01:07.23 5 32 00:18:35.77 9:17 min/m
7 60 Tina MROSKI 494 01:01:48.80 10 73 00:11:25.03 3:15 sec/100m 8 61 00:02:29.77 6 56 00:25:16.99 13.8 m/hr 14 98 00:02:08.22 9 56 00:20:28.77 10:14 min/m
8 66 Angelle WAGUESPACK 437 01:02:41.50 8 62 00:10:38.73 3:02 sec/100m 11 78 00:02:52.77 9 72 00:27:15.00 12.8 m/hr 5 47 00:01:10.22 10 57 00:20:44.77 10:22 min/m
9 70 Charlene WILLIAMSON 427 01:04:09.00 12 91 00:13:35.23 3:52 sec/100m 9 66 00:02:34.77 8 67 00:26:37.99 13.1 m/hr 3 32 00:01:00.22 7 53 00:20:20.77 10:10 min/m
10 71 Christie Gautreau 530 01:04:09.50 14 97 00:14:28.73 4:08 sec/100m 2 16 00:01:33.77 7 64 00:26:07.00 13.3 m/hr 12 77 00:01:36.22 8 54 00:20:23.77 10:11 min/m
11 72 Rebecca HAAGA 448 01:04:21.20 4 47 00:09:50.43 2:48 sec/100m 12 80 00:03:00.77 10 79 00:28:10.00 12.4 m/hr 7 59 00:01:21.22 13 71 00:21:58.77 10:59 min/m
12 74 Jerusha BOSARGE 424 01:05:31.60 5 58 00:10:31.83 3:00 sec/100m 13 91 00:03:19.77 13 86 00:28:55.00 12.0 m/hr 11 73 00:01:34.23 11 64 00:21:10.77 10:35 min/m
13 76 Blythe LAMONICA 456 01:05:59.50 2 15 00:07:58.73 2:16 sec/100m 6 32 00:01:49.77 12 82 00:28:34.00 12.2 m/hr 9 61 00:01:22.22 14 86 00:26:14.77 13:07 min/m
14 78 Kimberly HENDRICKS 414 01:06:57.10 11 87 00:12:47.33 3:39 sec/100m 10 74 00:02:42.77 11 81 00:28:30.99 12.2 m/hr 6 52 00:01:13.23 12 68 00:21:42.77 10:51 min/m
Ages 40 - 44
1 7 Anne HILE 500 00:49:21.30 2 14 00:07:56.53 2:16 sec/100m 2 2 00:01:02.77 1 5 00:20:53.00 16.7 m/hr 1 7 00:00:43.22 4 35 00:18:45.77 9:22 min/m
2 10 Deborah SCHULTZ 417 00:49:58.20 3 22 00:08:15.43 2:21 sec/100m 3 9 00:01:25.77 6 37 00:23:41.00 14.7 m/hr 2 10 00:00:45.22 1 6 00:15:50.77 7:55 min/m
3 19 Nina GAZMEN 503 00:51:37.70 7 64 00:10:42.93 3:03 sec/100m 1 1 00:01:02.77 3 13 00:21:42.00 16.0 m/hr 3 12 00:00:46.22 3 20 00:17:23.77 8:41 min/m
4 24 Tracy BAYLEY 481 00:52:42.40 5 40 00:09:27.63 2:42 sec/100m 4 13 00:01:30.77 2 10 00:21:29.00 16.2 m/hr 5 34 00:01:00.23 6 44 00:19:14.77 9:37 min/m
5 29 Stefanie SERPAS 459 00:54:38.70 9 76 00:11:44.93 3:21 sec/100m 7 35 00:01:50.77 4 26 00:22:35.00 15.4 m/hr 9 49 00:01:11.22 2 19 00:17:16.77 8:38 min/m
6 33 Sonja NEWMAN 435 00:55:39.80 4 30 00:08:49.03 2:31 sec/100m 11 83 00:03:06.78 5 33 00:23:08.99 15.0 m/hr 10 82 00:01:39.22 5 36 00:18:55.77 9:27 min/m
7 73 Kathleen WALSH 442 01:04:39.70 12 81 00:12:16.93 3:30 sec/100m 5 27 00:01:44.77 14 83 00:28:36.00 12.2 m/hr 8 44 00:01:06.22 7 58 00:20:55.77 10:27 min/m
8 77 Denise CRAWFORD 507 01:06:44.41 10 77 00:11:45.63 3:21 sec/100m 15 100 00:04:05.77 8 46 00:24:27.00 14.2 m/hr 13 102 00:02:25.22 8 78 00:24:00.78 12:00 min/m
9 81 Katie WILLIAMS 492 01:08:25.50 6 46 00:09:44.73 2:47 sec/100m 6 33 00:01:49.77 9 65 00:26:13.99 13.3 m/hr 4 31 00:01:00.22 12 97 00:29:36.77 14:48 min/m
10 88 Kristy MOREL 421 01:12:02.40 8 72 00:11:20.63 3:14 sec/100m 14 97 00:03:35.78 10 70 00:27:05.99 12.8 m/hr 11 88 00:01:47.22 10 90 00:28:12.77 14:06 min/m
11 89 Callie KERSHAW 502 01:12:04.70 13 88 00:12:47.93 3:39 sec/100m 10 71 00:02:39.77 12 76 00:27:46.00 12.5 m/hr 7 41 00:01:03.23 9 88 00:27:47.77 13:53 min/m
12 92 Susan GREMILLION 528 01:14:00.80 11 80 00:12:05.03 3:27 sec/100m 9 56 00:02:22.78 13 78 00:28:06.00 12.4 m/hr 6 38 00:01:03.22 13 99 00:30:23.77 15:11 min/m
13 95 Carrie VILLA 418 01:15:10.60 14 94 00:13:53.70 3:58 sec/100m 12 88 00:03:15.90 7 38 00:23:50.99 14.6 m/hr 14 103 00:02:35.23 15 103 00:31:34.77 15:47 min/m
14 97 Sarah Lovell 531 01:16:51.91 1 9 00:07:25.13 2:07 sec/100m 8 55 00:02:18.77 15 105 00:36:49.00 9.5 m/hr 12 95 00:01:59.22 11 93 00:28:19.78 14:09 min/m
15 104 Tina VILLA 174 01:27:17.80 15 104 00:22:05.90 6:18 sec/100m 13 90 00:03:18.90 11 75 00:27:35.00 12.6 m/hr 15 106 00:03:45.22 14 100 00:30:32.77 15:16 min/m
Ages 45 - 49
1 22 Jennifer BALSER 464 00:51:58.80 1 8 00:07:24.03 2:06 sec/100m 4 42 00:01:58.77 1 18 00:22:11.00 15.7 m/hr 3 55 00:01:16.22 2 40 00:19:08.77 9:34 min/m
2 35 Nina DAY 440 00:55:52.61 3 70 00:11:13.83 3:12 sec/100m 3 36 00:01:51.77 2 42 00:24:09.00 14.4 m/hr 10 93 00:01:53.22 1 14 00:16:44.78 8:22 min/m
3 50 Paula DAVIS 458 00:59:59.80 2 43 00:09:43.03 2:46 sec/100m 6 58 00:02:25.77 8 60 00:25:29.99 13.6 m/hr 4 57 00:01:17.23 6 61 00:21:03.77 10:31 min/m
4 52 Chantel GREEN 457 01:00:48.60 5 79 00:11:53.83 3:23 sec/100m 8 85 00:03:10.77 6 55 00:25:15.00 13.8 m/hr 2 54 00:01:15.22 3 43 00:19:13.77 9:36 min/m
5 56 Vickie BRAUD 404 01:01:29.00 4 78 00:11:47.23 3:22 sec/100m 7 76 00:02:46.77 5 52 00:25:02.00 13.9 m/hr 6 63 00:01:25.22 4 55 00:20:27.77 10:13 min/m
6 58 Stephanie RUOSS 475 01:01:41.30 6 89 00:13:04.53 3:44 sec/100m 2 14 00:01:31.77 4 49 00:24:45.00 14.1 m/hr 5 58 00:01:19.22 5 59 00:21:00.77 10:30 min/m
7 67 Mary elizabeth CHRISTIAN 496 01:03:37.70 10 98 00:14:41.80 4:11 sec/100m 1 11 00:01:26.90 3 44 00:24:26.00 14.2 m/hr 8 65 00:01:29.23 7 67 00:21:33.77 10:46 min/m
8 69 Tronda MILEY 450 01:04:02.90 7 90 00:13:06.13 3:44 sec/100m 5 47 00:02:09.77 7 59 00:25:28.00 13.7 m/hr 1 37 00:01:02.22 8 72 00:22:16.77 11:08 min/m
9 86 Wanda ALLPHIN 430 01:11:03.80 9 93 00:13:52.03 3:57 sec/100m 11 104 00:04:34.77 9 63 00:26:02.99 13.4 m/hr 11 94 00:01:56.22 9 82 00:24:37.77 12:18 min/m
10 101 Kim FALGOUT 483 01:24:22.50 8 92 00:13:48.73 3:56 sec/100m 9 86 00:03:10.77 10 88 00:29:26.00 11.8 m/hr 7 64 00:01:27.22 11 105 00:36:29.77 18:14 min/m
11 103 Stephanie HODGES 509 01:26:26.30 11 102 00:17:36.53 5:01 sec/100m 10 101 00:04:05.77 11 96 00:31:44.99 11.0 m/hr 9 83 00:01:43.23 10 101 00:31:15.77 15:37 min/m
Ages 50 - 54
1 11 Janine HOPPER 505 00:49:59.40 2 4 00:07:11.63 2:03 sec/100m 2 18 00:01:34.77 1 16 00:22:03.99 15.8 m/hr 2 21 00:00:54.22 2 28 00:18:14.77 9:07 min/m
2 16 Lynda HILTZ 461 00:51:25.00 4 33 00:08:58.23 2:33 sec/100m 4 57 00:02:24.77 3 25 00:22:32.00 15.4 m/hr 6 85 00:01:44.22 1 5 00:15:45.77 7:52 min/m
3 39 Tricia SPARKS 416 00:57:24.90 5 71 00:11:14.13 3:12 sec/100m 3 22 00:01:39.77 2 22 00:22:18.99 15.6 m/hr 1 3 00:00:41.23 4 66 00:21:30.77 10:45 min/m
4 40 Judy FORTENBERRY 460 00:58:06.30 3 24 00:08:26.53 2:24 sec/100m 7 82 00:03:01.77 4 32 00:23:08.00 15.0 m/hr 8 97 00:02:01.22 3 65 00:21:28.77 10:44 min/m
5 68 Anne HAYS 467 01:03:48.20 1 2 00:07:00.43 2:00 sec/100m 1 17 00:01:34.77 6 62 00:25:56.01 13.4 m/hr 3 36 00:01:02.22 5 91 00:28:14.77 14:07 min/m
6 80 Paige FITZGERALD 508 01:08:12.31 6 84 00:12:39.53 3:37 sec/100m 6 69 00:02:37.78 5 36 00:23:33.99 14.8 m/hr 4 43 00:01:05.22 6 92 00:28:15.78 14:07 min/m
7 98 Kathie RICHMOND 473 01:18:54.50 7 86 00:12:42.73 3:37 sec/100m 5 59 00:02:27.77 7 94 00:30:26.99 11.4 m/hr 5 76 00:01:35.22 8 104 00:31:41.77 15:50 min/m
8 102 Janet SIMONS 510 01:24:39.30 8 100 00:15:48.53 4:31 sec/100m 8 102 00:04:07.77 8 95 00:31:40.00 11.0 m/hr 7 87 00:01:46.22 7 102 00:31:16.77 15:38 min/m
Ages 55 - 59
1 49 Becky BRICE 431 00:59:42.10 1 34 00:09:00.33 2:34 sec/100m 2 64 00:02:32.77 4 74 00:27:27.99 12.7 m/hr 1 53 00:01:14.23 1 45 00:19:26.77 9:43 min/m
2 63 Vivian GUILLORY 446 01:02:27.00 3 52 00:10:14.23 2:55 sec/100m 1 15 00:01:33.77 1 61 00:25:52.00 13.5 m/hr 3 75 00:01:35.22 2 76 00:23:11.77 11:35 min/m
3 75 Nancy POWELL 486 01:05:39.40 4 65 00:10:48.63 3:05 sec/100m 4 73 00:02:41.77 2 66 00:26:33.00 13.1 m/hr 4 84 00:01:44.22 3 77 00:23:51.77 11:55 min/m
4 85 Dianne CASALENA 495 01:10:52.01 2 48 00:09:59.23 2:51 sec/100m 3 70 00:02:38.77 3 73 00:27:22.00 12.7 m/hr 5 101 00:02:21.22 5 94 00:28:30.78 14:15 min/m
5 93 Dianne FALGOUT LONG 482 01:14:07.60 5 99 00:14:51.83 4:14 sec/100m 5 81 00:03:00.77 5 84 00:28:43.00 12.1 m/hr 2 69 00:01:32.22 4 84 00:25:59.77 12:59 min/m
Results by RRPTiming.com

 

Road Bike | Fat Tire | Relay

Rocket Chix I
Relay
Overall 350 M Swim T1 5.8 Mile Bike T2 2 Mile Run
Overall
Pos
Name Race No Time Overall
Pos
Time Pace Overall
Pos
Time Overall
Pos
Time Pace Overall
Pos
Time Overall
Pos
Time Pace
1 PADIAL-PADIAL-BALKCOM 7 00:40:09.20 1 00:05:08.43 1:28 sec/100m 5 00:00:42.77 4 00:19:52.00 17.5 m/hr 1 00:00:29.22 1 00:13:56.77 6:58 min/m
2 EXERCHIX 8 00:43:40.10 2 00:06:34.33 1:52 sec/100m 1 00:00:32.78 2 00:19:25.00 17.9 m/hr 10 00:00:50.22 2 00:16:17.77 8:08 min/m
3 TRI THIS 5 00:47:12.91 5 00:07:50.13 2:14 sec/100m 15 00:01:32.77 8 00:20:38.00 16.9 m/hr 5 00:00:35.22 3 00:16:36.78 8:18 min/m
4 STEEL MAGNOLAS 3 00:47:34.01 10 00:09:27.23 2:42 sec/100m 10 00:00:45.78 1 00:19:24.99 17.9 m/hr 4 00:00:35.22 6 00:17:20.78 8:40 min/m
5 OUT OF FOCUS 13 00:48:15.50 9 00:09:05.73 2:35 sec/100m 6 00:00:43.77 6 00:20:22.00 17.1 m/hr 14 00:01:12.23 4 00:16:51.77 8:25 min/m
6 NO NUTS JUST GUTS 12 00:49:31.30 4 00:06:38.53 1:53 sec/100m 14 00:01:17.77 3 00:19:32.00 17.8 m/hr 12 00:00:50.22 10 00:21:12.77 10:36 min/m
7 MONOPLANE CHIX 10 00:49:49.20 13 00:10:46.43 3:04 sec/100m 4 00:00:40.77 7 00:20:29.00 17.0 m/hr 6 00:00:44.22 5 00:17:08.77 8:34 min/m
8 CHEETAH CHIXS 4 00:50:58.80 7 00:08:23.03 2:23 sec/100m 8 00:00:44.77 11 00:23:18.00 14.9 m/hr 7 00:00:45.22 7 00:17:47.77 8:53 min/m
9 THE LION TAMERS 14 00:51:03.10 14 00:11:13.33 3:12 sec/100m 2 00:00:36.77 5 00:20:15.00 17.2 m/hr 2 00:00:33.22 8 00:18:24.77 9:12 min/m
10 CS CHICKS 17 00:54:29.20 12 00:09:44.43 2:46 sec/100m 7 00:00:43.77 9 00:21:01.99 16.5 m/hr 3 00:00:33.23 12 00:22:25.77 11:12 min/m
11 LAB CHIX 1 00:54:39.00 11 00:09:33.23 2:43 sec/100m 13 00:00:52.77 12 00:24:55.00 14.0 m/hr 11 00:00:50.22 9 00:18:27.77 9:13 min/m
12 ONE REAL ATHLETE AND TWO WANNABE'S 6 00:55:50.40 3 00:06:34.63 1:52 sec/100m 3 00:00:37.77 13 00:26:17.00 13.2 m/hr 9 00:00:48.22 11 00:21:32.77 10:46 min/m
13 BROWN ROGERS THERAPY CHIX 2 01:00:42.90 8 00:08:55.13 2:32 sec/100m 9 00:00:44.77 14 00:26:17.99 13.2 m/hr 15 00:01:40.23 13 00:23:04.77 11:32 min/m
14 LE BON TEMP LADIES 16 01:03:04.60 15 00:13:46.83 3:56 sec/100m 12 00:00:46.77 10 00:22:54.99 15.2 m/hr 13 00:00:51.22 14 00:24:44.77 12:22 min/m
15 LIMPING, CRASHING AND DROWNING 11 01:08:55.30 6 00:08:13.53 2:21 sec/100m 11 00:00:46.77 15 00:34:12.00 10.2 m/hr 8 00:00:46.22 15 00:24:56.77 12:28 min/m
Results by RRPTiming.com
AttachmentSize
RocketChixI_2011-Results3.xls147.5 KB
RocketChixI_2011-FatTire.pdf29.59 KB
RocketChixI_2011-Relay.pdf9.03 KB
RocketChixI_2011-RoadBike.pdf54.84 KB

© copyright 2013, RRPTiming.com. RRPTiming is a Redemption Race Productions site. Website by Rich.